sensor_id;sensor_type;location;lat;lon;timestamp;pressure;altitude;pressure_sealevel;temperature;humidity
64192;BME280;50497;50.720;-2.084;2023-04-30T00:02:00;102386.78;;;7.18;100.00
64192;BME280;50497;50.720;-2.084;2023-04-30T00:04:26;102379.75;;;7.09;100.00
64192;BME280;50497;50.720;-2.084;2023-04-30T00:06:51;102393.91;;;7.14;100.00
64192;BME280;50497;50.720;-2.084;2023-04-30T00:09:17;102387.66;;;7.20;100.00
64192;BME280;50497;50.720;-2.084;2023-04-30T00:11:43;102375.34;;;7.02;100.00
64192;BME280;50497;50.720;-2.084;2023-04-30T00:14:12;102390.44;;;7.00;100.00
64192;BME280;50497;50.720;-2.084;2023-04-30T00:16:44;102378.97;;;6.90;100.00
64192;BME280;50497;50.720;-2.084;2023-04-30T00:19:12;102371.94;;;6.80;100.00
64192;BME280;50497;50.720;-2.084;2023-04-30T00:21:38;102401.09;;;6.94;100.00
64192;BME280;50497;50.720;-2.084;2023-04-30T00:24:04;102394.94;;;6.90;100.00
64192;BME280;50497;50.720;-2.084;2023-04-30T00:26:33;102385.19;;;6.89;100.00
64192;BME280;50497;50.720;-2.084;2023-04-30T00:29:00;102402.91;;;6.92;100.00
64192;BME280;50497;50.720;-2.084;2023-04-30T00:31:25;102411.81;;;6.83;100.00
64192;BME280;50497;50.720;-2.084;2023-04-30T00:33:57;102402.06;;;6.82;100.00
64192;BME280;50497;50.720;-2.084;2023-04-30T00:36:23;102402.09;;;6.77;100.00
64192;BME280;50497;50.720;-2.084;2023-04-30T00:38:53;102410.03;;;6.80;100.00
64192;BME280;50497;50.720;-2.084;2023-04-30T00:41:20;102409.16;;;6.83;100.00
64192;BME280;50497;50.720;-2.084;2023-04-30T00:43:46;102371.19;;;6.48;100.00
64192;BME280;50497;50.720;-2.084;2023-04-30T00:46:12;102407.44;;;6.70;100.00
64192;BME280;50497;50.720;-2.084;2023-04-30T00:48:41;102407.47;;;6.65;100.00
64192;BME280;50497;50.720;-2.084;2023-04-30T00:51:08;102406.53;;;6.72;100.00
64192;BME280;50497;50.720;-2.084;2023-04-30T00:53:38;102412.78;;;6.65;100.00
64192;BME280;50497;50.720;-2.084;2023-04-30T00:56:08;102406.50;;;6.81;100.00
64192;BME280;50497;50.720;-2.084;2023-04-30T00:58:36;102410.03;;;6.85;100.00
64192;BME280;50497;50.720;-2.084;2023-04-30T01:01:05;102410.09;;;6.76;100.00
64192;BME280;50497;50.720;-2.084;2023-04-30T01:03:37;102420.75;;;6.74;100.00
64192;BME280;50497;50.720;-2.084;2023-04-30T01:06:07;102425.13;;;6.78;100.00
64192;BME280;50497;50.720;-2.084;2023-04-30T01:08:33;102428.66;;;6.79;100.00
64192;BME280;50497;50.720;-2.084;2023-04-30T01:11:10;102434.03;;;6.77;100.00
64192;BME280;50497;50.720;-2.084;2023-04-30T01:16:25;102442.84;;;6.85;100.00
64192;BME280;50497;50.720;-2.084;2023-04-30T01:18:56;102448.16;;;6.89;100.00
64192;BME280;50497;50.720;-2.084;2023-04-30T01:21:26;102443.75;;;6.78;100.00
64192;BME280;50497;50.720;-2.084;2023-04-30T01:29:23;102496.03;;;6.90;100.00
64192;BME280;50497;50.720;-2.084;2023-04-30T01:31:51;102494.28;;;6.86;100.00
64192;BME280;50497;50.720;-2.084;2023-04-30T01:34:17;102504.94;;;6.80;100.00
64192;BME280;50497;50.720;-2.084;2023-04-30T01:42:33;102536.00;;;6.75;100.00
64192;BME280;50497;50.720;-2.084;2023-04-30T01:48:17;102555.50;;;6.72;100.00
64192;BME280;50497;50.720;-2.084;2023-04-30T01:50:52;102548.41;;;6.77;100.00
64192;BME280;50497;50.720;-2.084;2023-04-30T01:53:29;102553.75;;;6.77;100.00
64192;BME280;50497;50.720;-2.084;2023-04-30T01:55:58;102561.72;;;6.74;100.00
64192;BME280;50497;50.720;-2.084;2023-04-30T01:58:28;102559.06;;;6.71;100.00
64192;BME280;50497;50.720;-2.084;2023-04-30T02:00:55;102525.41;;;6.48;100.00
64192;BME280;50497;50.720;-2.084;2023-04-30T02:03:28;102563.50;;;6.64;100.00
64192;BME280;50497;50.720;-2.084;2023-04-30T02:05:57;102558.19;;;6.55;100.00
64192;BME280;50497;50.720;-2.084;2023-04-30T02:08:30;102565.31;;;6.56;100.00
64192;BME280;50497;50.720;-2.084;2023-04-30T02:10:58;102561.75;;;6.54;100.00
64192;BME280;50497;50.720;-2.084;2023-04-30T02:13:27;102535.19;;;6.34;100.00
64192;BME280;50497;50.720;-2.084;2023-04-30T02:15:53;102551.13;;;6.45;100.00
64192;BME280;50497;50.720;-2.084;2023-04-30T02:18:20;102548.47;;;6.37;100.00
64192;BME280;50497;50.720;-2.084;2023-04-30T02:20:53;102539.59;;;6.31;100.00
64192;BME280;50497;50.720;-2.084;2023-04-30T02:23:21;102545.84;;;6.28;100.00
64192;BME280;50497;50.720;-2.084;2023-04-30T02:25:57;102544.03;;;6.21;100.00
64192;BME280;50497;50.720;-2.084;2023-04-30T02:28:29;102537.84;;;6.16;100.00
64192;BME280;50497;50.720;-2.084;2023-04-30T02:30:58;102534.28;;;6.07;100.00
64192;BME280;50497;50.720;-2.084;2023-04-30T02:33:24;102527.22;;;6.03;100.00
64192;BME280;50497;50.720;-2.084;2023-04-30T02:35:58;102529.88;;;6.08;100.00
64192;BME280;50497;50.720;-2.084;2023-04-30T02:38:23;102533.41;;;6.04;100.00
64192;BME280;50497;50.720;-2.084;2023-04-30T02:40:54;102522.78;;;5.99;100.00
64192;BME280;50497;50.720;-2.084;2023-04-30T02:43:24;102521.88;;;5.94;100.00
64192;BME280;50497;50.720;-2.084;2023-04-30T02:45:56;102502.38;;;5.86;100.00
64192;BME280;50497;50.720;-2.084;2023-04-30T02:48:26;102521.03;;;6.00;100.00
64192;BME280;50497;50.720;-2.084;2023-04-30T02:50:54;102522.78;;;5.99;100.00
64192;BME280;50497;50.720;-2.084;2023-04-30T02:53:23;102528.09;;;6.05;100.00
64192;BME280;50497;50.720;-2.084;2023-04-30T02:55:53;102518.38;;;6.04;100.00
64192;BME280;50497;50.720;-2.084;2023-04-30T02:58:25;102518.38;;;6.01;100.00
64192;BME280;50497;50.720;-2.084;2023-04-30T03:00:50;102530.75;;;6.05;100.00
64192;BME280;50497;50.720;-2.084;2023-04-30T03:03:21;102527.22;;;6.06;100.00
64192;BME280;50497;50.720;-2.084;2023-04-30T03:05:51;102531.66;;;6.04;100.00
64192;BME280;50497;50.720;-2.084;2023-04-30T03:08:24;102544.97;;;6.04;100.00
64192;BME280;50497;50.720;-2.084;2023-04-30T03:10:50;102536.97;;;6.00;100.00
64192;BME280;50497;50.720;-2.084;2023-04-30T03:13:21;102557.28;;;5.90;100.00
64192;BME280;50497;50.720;-2.084;2023-04-30T03:15:59;102554.69;;;5.98;100.00
64192;BME280;50497;50.720;-2.084;2023-04-30T03:18:28;102560.88;;;5.98;100.00
64192;BME280;50497;50.720;-2.084;2023-04-30T03:20:53;102558.19;;;5.92;100.00
64192;BME280;50497;50.720;-2.084;2023-04-30T03:23:25;102550.22;;;5.81;100.00
64192;BME280;50497;50.720;-2.084;2023-04-30T03:25:58;102561.72;;;5.83;100.00
64192;BME280;50497;50.720;-2.084;2023-04-30T03:28:28;102566.16;;;5.83;100.00
64192;BME280;50497;50.720;-2.084;2023-04-30T03:30:56;102565.22;;;5.79;100.00
64192;BME280;50497;50.720;-2.084;2023-04-30T03:33:30;102559.03;;;5.72;100.00
64192;BME280;50497;50.720;-2.084;2023-04-30T03:35:59;102557.28;;;5.74;100.00
64192;BME280;50497;50.720;-2.084;2023-04-30T03:38:28;102545.69;;;5.42;100.00
64192;BME280;50497;50.720;-2.084;2023-04-30T03:41:03;102535.97;;;5.50;100.00
64192;BME280;50497;50.720;-2.084;2023-04-30T03:43:32;102543.94;;;5.58;100.00
64192;BME280;50497;50.720;-2.084;2023-04-30T03:46:01;102542.19;;;5.55;100.00
64192;BME280;50497;50.720;-2.084;2023-04-30T03:48:27;102537.75;;;5.52;100.00
64192;BME280;50497;50.720;-2.084;2023-04-30T03:50:52;102543.06;;;5.45;100.00
64192;BME280;50497;50.720;-2.084;2023-04-30T03:53:22;102535.09;;;5.48;100.00
64192;BME280;50497;50.720;-2.084;2023-04-30T03:55:57;102528.00;;;5.47;100.00
64192;BME280;50497;50.720;-2.084;2023-04-30T03:58:23;102544.84;;;5.57;100.00
64192;BME280;50497;50.720;-2.084;2023-04-30T04:00:54;102547.50;;;5.55;100.00
64192;BME280;50497;50.720;-2.084;2023-04-30T04:03:19;102548.41;;;5.63;100.00
64192;BME280;50497;50.720;-2.084;2023-04-30T04:05:49;102542.19;;;5.58;100.00
64192;BME280;50497;50.720;-2.084;2023-04-30T04:08:19;102546.59;;;5.58;100.00
64192;BME280;50497;50.720;-2.084;2023-04-30T04:10:47;102548.34;;;5.51;100.00
64192;BME280;50497;50.720;-2.084;2023-04-30T04:13:18;102543.06;;;5.54;100.00
64192;BME280;50497;50.720;-2.084;2023-04-30T04:15:46;102530.63;;;5.37;100.00
64192;BME280;50497;50.720;-2.084;2023-04-30T04:18:16;102546.59;;;5.50;100.00
64192;BME280;50497;50.720;-2.084;2023-04-30T04:20:45;102548.34;;;5.49;100.00
64192;BME280;50497;50.720;-2.084;2023-04-30T04:23:14;102556.34;;;5.60;100.00
64192;BME280;50497;50.720;-2.084;2023-04-30T04:25:46;102557.22;;;5.58;100.00
64192;BME280;50497;50.720;-2.084;2023-04-30T04:28:18;102575.88;;;5.71;100.00
64192;BME280;50497;50.720;-2.084;2023-04-30T04:30:47;102574.06;;;5.69;100.00
64192;BME280;50497;50.720;-2.084;2023-04-30T04:33:14;102573.19;;;5.67;100.00
64192;BME280;50497;50.720;-2.084;2023-04-30T04:35:50;102575.84;;;5.70;100.00
64192;BME280;50497;50.720;-2.084;2023-04-30T04:38:28;102566.09;;;5.58;100.00
64192;BME280;50497;50.720;-2.084;2023-04-30T04:40:59;102589.13;;;5.71;100.00
64192;BME280;50497;50.720;-2.084;2023-04-30T04:43:29;102596.22;;;5.72;100.00
64192;BME280;50497;50.720;-2.084;2023-04-30T04:45:54;102574.94;;;5.57;100.00
64192;BME280;50497;50.720;-2.084;2023-04-30T04:48:23;102615.72;;;5.82;100.00
64192;BME280;50497;50.720;-2.084;2023-04-30T04:50:57;102626.34;;;5.87;100.00
64192;BME280;50497;50.720;-2.084;2023-04-30T04:53:22;102598.84;;;5.72;100.00
64192;BME280;50497;50.720;-2.084;2023-04-30T04:55:48;102647.66;;;6.02;100.00
64192;BME280;50497;50.720;-2.084;2023-04-30T04:58:14;102659.19;;;6.09;100.00
64192;BME280;50497;50.720;-2.084;2023-04-30T05:00:46;102671.63;;;6.22;100.00
64192;BME280;50497;50.720;-2.084;2023-04-30T05:03:13;102679.66;;;6.38;100.00
64192;BME280;50497;50.720;-2.084;2023-04-30T05:05:41;102691.16;;;6.54;100.00
64192;BME280;50497;50.720;-2.084;2023-04-30T05:08:07;102684.97;;;6.52;100.00
64192;BME280;50497;50.720;-2.084;2023-04-30T05:10:40;102706.25;;;6.73;100.00
64192;BME280;50497;50.720;-2.084;2023-04-30T05:13:10;102707.16;;;6.84;100.00
64192;BME280;50497;50.720;-2.084;2023-04-30T05:15:39;102709.78;;;6.98;100.00
64192;BME280;50497;50.720;-2.084;2023-04-30T05:18:08;102707.13;;;7.09;100.00
64192;BME280;50497;50.720;-2.084;2023-04-30T05:20:35;102708.00;;;7.00;100.00
64192;BME280;50497;50.720;-2.084;2023-04-30T05:23:00;102701.78;;;7.23;100.00
64192;BME280;50497;50.720;-2.084;2023-04-30T05:25:30;102709.75;;;7.25;100.00
64192;BME280;50497;50.720;-2.084;2023-04-30T05:28:00;102706.19;;;7.38;100.00
64192;BME280;50497;50.720;-2.084;2023-04-30T05:30:26;102698.19;;;7.46;100.00
64192;BME280;50497;50.720;-2.084;2023-04-30T05:32:56;102704.38;;;7.55;100.00
64192;BME280;50497;50.720;-2.084;2023-04-30T05:35:26;102698.13;;;7.50;100.00
64192;BME280;50497;50.720;-2.084;2023-04-30T05:37:52;102695.44;;;7.63;100.00
64192;BME280;50497;50.720;-2.084;2023-04-30T05:40:24;102692.72;;;7.73;100.00
64192;BME280;50497;50.720;-2.084;2023-04-30T05:42:49;102678.53;;;7.77;100.00
64192;BME280;50497;50.720;-2.084;2023-04-30T05:45:18;102652.75;;;7.72;100.00
64192;BME280;50497;50.720;-2.084;2023-04-30T05:47:44;102658.91;;;7.86;100.00
64192;BME280;50497;50.720;-2.084;2023-04-30T05:50:10;102643.78;;;7.91;100.00
64192;BME280;50497;50.720;-2.084;2023-04-30T05:52:35;102632.25;;;7.89;100.00
64192;BME280;50497;50.720;-2.084;2023-04-30T05:55:01;102613.59;;;7.91;100.00
64192;BME280;50497;50.720;-2.084;2023-04-30T05:57:27;102594.91;;;7.97;100.00
64192;BME280;50497;50.720;-2.084;2023-04-30T05:59:52;102557.69;;;7.78;100.00
64192;BME280;50497;50.720;-2.084;2023-04-30T06:02:18;102561.22;;;7.85;100.00
64192;BME280;50497;50.720;-2.084;2023-04-30T06:04:44;102576.16;;;8.08;100.00
64192;BME280;50497;50.720;-2.084;2023-04-30T06:07:11;102558.41;;;8.07;100.00
64192;BME280;50497;50.720;-2.084;2023-04-30T06:09:37;102551.28;;;8.06;100.00
64192;BME280;50497;50.720;-2.084;2023-04-30T06:12:03;102533.44;;;8.17;100.00
64192;BME280;50497;50.720;-2.084;2023-04-30T06:14:28;102518.31;;;8.19;100.00
64192;BME280;50497;50.720;-2.084;2023-04-30T06:16:55;102494.38;;;8.08;100.00
64192;BME280;50497;50.720;-2.084;2023-04-30T06:19:21;102460.81;;;7.92;100.00
64192;BME280;50497;50.720;-2.084;2023-04-30T06:21:46;102483.63;;;8.22;100.00
64192;BME280;50497;50.720;-2.084;2023-04-30T06:24:12;102464.00;;;8.26;100.00
64192;BME280;50497;50.720;-2.084;2023-04-30T06:26:37;102461.47;;;8.14;100.00
64192;BME280;50497;50.720;-2.084;2023-04-30T06:29:03;102450.03;;;8.00;100.00
64192;BME280;50497;50.720;-2.084;2023-04-30T06:31:29;102414.53;;;7.98;100.00
64192;BME280;50497;50.720;-2.084;2023-04-30T06:33:55;102440.97;;;8.19;100.00
64192;BME280;50497;50.720;-2.084;2023-04-30T06:36:20;102414.22;;;8.28;100.00
64192;BME280;50497;50.720;-2.084;2023-04-30T06:38:50;102435.41;;;8.41;100.00
64192;BME280;50497;50.720;-2.084;2023-04-30T06:41:16;102437.25;;;8.36;100.00
64192;BME280;50497;50.720;-2.084;2023-04-30T06:43:45;102437.19;;;8.42;100.00
64192;BME280;50497;50.720;-2.084;2023-04-30T06:46:11;102439.72;;;8.57;100.00
64192;BME280;50497;50.720;-2.084;2023-04-30T06:48:36;102413.81;;;8.65;100.00
64192;BME280;50497;50.720;-2.084;2023-04-30T06:51:02;102440.97;;;8.98;100.00
64192;BME280;50497;50.720;-2.084;2023-04-30T06:53:31;102444.53;;;8.97;100.00
64192;BME280;50497;50.720;-2.084;2023-04-30T06:55:56;102437.25;;;9.10;100.00
64192;BME280;50497;50.720;-2.084;2023-04-30T06:58:22;102403.63;;;8.97;100.00
64192;BME280;50497;50.720;-2.084;2023-04-30T07:00:48;102418.00;;;9.47;100.00
64192;BME280;50497;50.720;-2.084;2023-04-30T07:03:13;102420.31;;;9.69;100.00
64192;BME280;50497;50.720;-2.084;2023-04-30T07:05:39;102419.75;;;9.50;100.00
64192;BME280;50497;50.720;-2.084;2023-04-30T07:08:07;102402.16;;;9.88;100.00
64192;BME280;50497;50.720;-2.084;2023-04-30T07:10:32;102399.59;;;10.33;100.00
64192;BME280;50497;50.720;-2.084;2023-04-30T07:13:02;102382.59;;;10.78;100.00
64192;BME280;50497;50.720;-2.084;2023-04-30T07:15:28;102348.56;;;10.83;100.00
64192;BME280;50497;50.720;-2.084;2023-04-30T07:17:53;102361.22;;;11.51;100.00
64192;BME280;50497;50.720;-2.084;2023-04-30T07:20:19;102358.91;;;12.06;100.00
64192;BME280;50497;50.720;-2.084;2023-04-30T07:22:45;102353.59;;;12.36;100.00
64192;BME280;50497;50.720;-2.084;2023-04-30T07:25:11;102358.28;;;11.96;100.00
64192;BME280;50497;50.720;-2.084;2023-04-30T07:27:40;102351.97;;;12.30;100.00
64192;BME280;50497;50.720;-2.084;2023-04-30T07:30:07;102354.91;;;12.21;100.00
64192;BME280;50497;50.720;-2.084;2023-04-30T07:32:36;102363.09;;;12.48;100.00
64192;BME280;50497;50.720;-2.084;2023-04-30T07:35:01;102374.28;;;12.32;100.00
64192;BME280;50497;50.720;-2.084;2023-04-30T07:37:28;102354.06;;;11.86;100.00
64192;BME280;50497;50.720;-2.084;2023-04-30T07:39:58;102391.28;;;11.98;100.00
64192;BME280;50497;50.720;-2.084;2023-04-30T07:42:24;102393.22;;;12.26;100.00
64192;BME280;50497;50.720;-2.084;2023-04-30T07:44:59;102395.28;;;12.16;100.00
64192;BME280;50497;50.720;-2.084;2023-04-30T07:47:25;102415.72;;;12.22;100.00
64192;BME280;50497;50.720;-2.084;2023-04-30T07:50:06;102416.59;;;12.23;100.00
64192;BME280;50497;50.720;-2.084;2023-04-30T07:52:34;102427.31;;;12.23;100.00
64192;BME280;50497;50.720;-2.084;2023-04-30T07:55:00;102424.75;;;12.18;100.00
64192;BME280;50497;50.720;-2.084;2023-04-30T07:57:28;102436.06;;;11.96;100.00
64192;BME280;50497;50.720;-2.084;2023-04-30T07:59:54;102425.25;;;11.99;100.00
64192;BME280;50497;50.720;-2.084;2023-04-30T08:02:21;102431.28;;;11.72;100.00
64192;BME280;50497;50.720;-2.084;2023-04-30T08:04:48;102415.06;;;11.40;100.00
64192;BME280;50497;50.720;-2.084;2023-04-30T08:07:20;102380.63;;;11.61;100.00
64192;BME280;50497;50.720;-2.084;2023-04-30T08:09:54;102403.53;;;11.74;100.00
64192;BME280;50497;50.720;-2.084;2023-04-30T08:12:27;102396.28;;;11.78;100.00
64192;BME280;50497;50.720;-2.084;2023-04-30T08:15:01;102394.66;;;11.72;100.00
64192;BME280;50497;50.720;-2.084;2023-04-30T08:17:39;102397.66;;;11.58;100.00
64192;BME280;50497;50.720;-2.084;2023-04-30T08:20:21;102363.81;;;11.18;100.00
64192;BME280;50497;50.720;-2.084;2023-04-30T08:23:01;102355.50;;;11.31;100.00
64192;BME280;50497;50.720;-2.084;2023-04-30T08:25:34;102345.66;;;11.31;100.00
64192;BME280;50497;50.720;-2.084;2023-04-30T08:28:03;102330.81;;;11.16;100.00
64192;BME280;50497;50.720;-2.084;2023-04-30T08:30:36;102319.59;;;11.00;100.00
64192;BME280;50497;50.720;-2.084;2023-04-30T08:33:07;102312.47;;;11.01;100.00
64192;BME280;50497;50.720;-2.084;2023-04-30T08:35:37;102313.84;;;11.17;100.00
64192;BME280;50497;50.720;-2.084;2023-04-30T08:38:13;102307.56;;;11.18;100.00
64192;BME280;50497;50.720;-2.084;2023-04-30T08:40:48;102312.97;;;11.15;100.00
64192;BME280;50497;50.720;-2.084;2023-04-30T08:43:26;102315.16;;;11.35;100.00
64192;BME280;50497;50.720;-2.084;2023-04-30T08:45:58;102310.22;;;11.18;100.00
64192;BME280;50497;50.720;-2.084;2023-04-30T08:48:24;102315.59;;;11.18;100.00
64192;BME280;50497;50.720;-2.084;2023-04-30T08:50:52;102320.88;;;11.21;100.00
64192;BME280;50497;50.720;-2.084;2023-04-30T08:53:18;102313.41;;;11.34;100.00
64192;BME280;50497;50.720;-2.084;2023-04-30T08:55:49;102333.44;;;11.19;100.00
64192;BME280;50497;50.720;-2.084;2023-04-30T08:58:19;102326.78;;;11.36;100.00
64192;BME280;50497;50.720;-2.084;2023-04-30T09:00:45;102321.25;;;11.42;100.00
64192;BME280;50497;50.720;-2.084;2023-04-30T09:03:11;102343.00;;;11.30;100.00
64192;BME280;50497;50.720;-2.084;2023-04-30T09:05:39;102332.59;;;11.17;100.00
64192;BME280;50497;50.720;-2.084;2023-04-30T09:08:16;102340.25;;;11.33;100.00
64192;BME280;50497;50.720;-2.084;2023-04-30T09:10:51;102343.50;;;11.45;100.00
64192;BME280;50497;50.720;-2.084;2023-04-30T09:13:16;102322.16;;;11.05;100.00
64192;BME280;50497;50.720;-2.084;2023-04-30T09:15:50;102354.03;;;11.17;100.00
64192;BME280;50497;50.720;-2.084;2023-04-30T09:18:18;102359.94;;;11.30;100.00
64192;BME280;50497;50.720;-2.084;2023-04-30T09:20:59;102327.63;;;11.38;100.00
64192;BME280;50497;50.720;-2.084;2023-04-30T09:23:31;102366.88;;;11.75;100.00
64192;BME280;50497;50.720;-2.084;2023-04-30T09:25:57;102366.44;;;11.90;100.00
64192;BME280;50497;50.720;-2.084;2023-04-30T09:28:26;102369.53;;;11.75;100.00
64192;BME280;50497;50.720;-2.084;2023-04-30T09:31:02;102364.22;;;12.08;100.00
64192;BME280;50497;50.720;-2.084;2023-04-30T09:33:44;102348.31;;;12.33;100.00
64192;BME280;50497;50.720;-2.084;2023-04-30T09:36:13;102348.97;;;12.10;100.00
64192;BME280;50497;50.720;-2.084;2023-04-30T09:38:43;102351.59;;;11.77;100.00
64192;BME280;50497;50.720;-2.084;2023-04-30T09:41:25;102352.59;;;12.09;100.00
64192;BME280;50497;50.720;-2.084;2023-04-30T09:43:57;102351.31;;;12.22;100.00
64192;BME280;50497;50.720;-2.084;2023-04-30T09:46:36;102352.28;;;12.19;100.00
64192;BME280;50497;50.720;-2.084;2023-04-30T09:49:06;102350.72;;;12.42;100.00
64192;BME280;50497;50.720;-2.084;2023-04-30T09:51:31;102354.81;;;12.55;100.00
64192;BME280;50497;50.720;-2.084;2023-04-30T09:53:57;102349.22;;;12.62;100.00
64192;BME280;50497;50.720;-2.084;2023-04-30T09:56:26;102355.41;;;12.65;100.00
64192;BME280;50497;50.720;-2.084;2023-04-30T09:58:55;102350.75;;;12.72;100.00
64192;BME280;50497;50.720;-2.084;2023-04-30T10:01:25;102370.53;;;12.38;100.00
64192;BME280;50497;50.720;-2.084;2023-04-30T10:03:53;102335.72;;;12.35;100.00
64192;BME280;50497;50.720;-2.084;2023-04-30T10:06:20;102379.38;;;12.71;100.00
64192;BME280;50497;50.720;-2.084;2023-04-30T10:08:55;102382.28;;;12.65;100.00
64192;BME280;50497;50.720;-2.084;2023-04-30T10:11:27;102382.34;;;12.92;100.00
64192;BME280;50497;50.720;-2.084;2023-04-30T10:14:03;102354.00;;;13.11;100.00
64192;BME280;50497;50.720;-2.084;2023-04-30T10:19:12;102420.84;;;12.92;100.00
64192;BME280;50497;50.720;-2.084;2023-04-30T10:21:46;102436.03;;;12.93;100.00
64192;BME280;50497;50.720;-2.084;2023-04-30T10:24:13;102436.06;;;13.22;100.00
64192;BME280;50497;50.720;-2.084;2023-04-30T10:26:43;102428.31;;;13.11;100.00
64192;BME280;50497;50.720;-2.084;2023-04-30T10:29:09;102443.09;;;13.26;100.00
64192;BME280;50497;50.720;-2.084;2023-04-30T10:31:37;102461.19;;;13.21;100.00
64192;BME280;50497;50.720;-2.084;2023-04-30T10:36:47;102496.75;;;12.99;100.00
64192;BME280;50497;50.720;-2.084;2023-04-30T10:39:20;102471.59;;;12.72;100.00
64192;BME280;50497;50.720;-2.084;2023-04-30T10:41:50;102501.31;;;12.97;100.00
64192;BME280;50497;50.720;-2.084;2023-04-30T10:44:20;102500.50;;;13.25;100.00
64192;BME280;50497;50.720;-2.084;2023-04-30T10:46:57;102522.97;;;12.91;100.00
64192;BME280;50497;50.720;-2.084;2023-04-30T10:49:26;102514.19;;;13.16;100.00
64192;BME280;50497;50.720;-2.084;2023-04-30T10:52:02;102535.41;;;12.95;100.00
64192;BME280;50497;50.720;-2.084;2023-04-30T10:57:17;102575.50;;;13.01;100.00
64192;BME280;50497;50.720;-2.084;2023-04-30T10:59:51;102578.44;;;13.25;100.00
64192;BME280;50497;50.720;-2.084;2023-04-30T11:02:18;102558.75;;;13.23;100.00
64192;BME280;50497;50.720;-2.084;2023-04-30T11:07:31;102536.72;;;13.11;100.00
64192;BME280;50497;50.720;-2.084;2023-04-30T11:09:56;102571.47;;;13.18;100.00
64192;BME280;50497;50.720;-2.084;2023-04-30T11:12:25;102603.00;;;12.45;100.00
64192;BME280;50497;50.720;-2.084;2023-04-30T11:15:03;102554.88;;;13.03;100.00
64192;BME280;50497;50.720;-2.084;2023-04-30T11:17:31;102562.31;;;12.93;100.00
64192;BME280;50497;50.720;-2.084;2023-04-30T11:19:59;102563.41;;;13.18;100.00
64192;BME280;50497;50.720;-2.084;2023-04-30T11:22:28;102557.44;;;13.06;100.00
64192;BME280;50497;50.720;-2.084;2023-04-30T11:25:06;102542.31;;;13.04;100.00
64192;BME280;50497;50.720;-2.084;2023-04-30T11:27:39;102543.13;;;13.06;100.00
64192;BME280;50497;50.720;-2.084;2023-04-30T11:30:19;102541.72;;;13.24;100.00
64192;BME280;50497;50.720;-2.084;2023-04-30T11:32:47;102535.94;;;13.06;100.00
64192;BME280;50497;50.720;-2.084;2023-04-30T11:35:16;102544.19;;;13.31;100.00
64192;BME280;50497;50.720;-2.084;2023-04-30T11:37:43;102555.16;;;13.24;100.00
64192;BME280;50497;50.720;-2.084;2023-04-30T11:40:11;102553.34;;;13.24;100.00
64192;BME280;50497;50.720;-2.084;2023-04-30T11:42:38;102537.84;;;13.64;100.00
64192;BME280;50497;50.720;-2.084;2023-04-30T11:45:08;102552.03;;;13.69;100.00
64192;BME280;50497;50.720;-2.084;2023-04-30T11:47:49;102561.56;;;13.79;100.00
64192;BME280;50497;50.720;-2.084;2023-04-30T11:50:23;102574.94;;;13.53;100.00
64192;BME280;50497;50.720;-2.084;2023-04-30T11:52:55;102590.75;;;13.34;100.00
64192;BME280;50497;50.720;-2.084;2023-04-30T11:55:25;102589.97;;;12.97;100.00
64192;BME280;50497;50.720;-2.084;2023-04-30T11:57:55;102551.97;;;12.78;100.00
64192;BME280;50497;50.720;-2.084;2023-04-30T12:00:27;102589.13;;;12.95;100.00
64192;BME280;50497;50.720;-2.084;2023-04-30T12:02:55;102563.63;;;13.10;100.00
64192;BME280;50497;50.720;-2.084;2023-04-30T12:05:25;102568.72;;;12.88;100.00
64192;BME280;50497;50.720;-2.084;2023-04-30T12:07:58;102550.78;;;13.20;100.00
64192;BME280;50497;50.720;-2.084;2023-04-30T12:10:24;102539.53;;;13.38;100.00
64192;BME280;50497;50.720;-2.084;2023-04-30T12:12:51;102560.94;;;13.41;100.00
64192;BME280;50497;50.720;-2.084;2023-04-30T12:15:22;102551.53;;;13.26;100.00
64192;BME280;50497;50.720;-2.084;2023-04-30T12:17:52;102607.75;;;13.01;100.00
64192;BME280;50497;50.720;-2.084;2023-04-30T12:20:19;102611.66;;;12.89;100.00
64192;BME280;50497;50.720;-2.084;2023-04-30T12:22:46;102583.84;;;12.92;100.00
64192;BME280;50497;50.720;-2.084;2023-04-30T12:25:14;102563.31;;;13.21;100.00
64192;BME280;50497;50.720;-2.084;2023-04-30T12:27:44;102577.16;;;13.07;100.00
64192;BME280;50497;50.720;-2.084;2023-04-30T12:30:10;102546.91;;;12.67;100.00
64192;BME280;50497;50.720;-2.084;2023-04-30T12:32:40;102582.91;;;12.93;100.00
64192;BME280;50497;50.720;-2.084;2023-04-30T12:35:07;102558.56;;;12.99;100.00
64192;BME280;50497;50.720;-2.084;2023-04-30T12:37:36;102546.47;;;12.83;100.00
64192;BME280;50497;50.720;-2.084;2023-04-30T12:40:12;102546.16;;;12.95;100.00
64192;BME280;50497;50.720;-2.084;2023-04-30T12:42:38;102532.25;;;13.10;100.00
64192;BME280;50497;50.720;-2.084;2023-04-30T12:45:08;102535.19;;;13.01;100.00
64192;BME280;50497;50.720;-2.084;2023-04-30T12:47:39;102535.88;;;13.09;100.00
64192;BME280;50497;50.720;-2.084;2023-04-30T12:50:11;102538.38;;;13.47;100.00
64192;BME280;50497;50.720;-2.084;2023-04-30T12:52:38;102535.91;;;13.08;100.00
64192;BME280;50497;50.720;-2.084;2023-04-30T12:55:18;102521.31;;;13.48;100.00
64192;BME280;50497;50.720;-2.084;2023-04-30T13:00:52;102520.00;;;13.02;100.00
64192;BME280;50497;50.720;-2.084;2023-04-30T13:03:18;102546.56;;;13.42;100.00
64192;BME280;50497;50.720;-2.084;2023-04-30T13:05:50;102583.22;;;13.46;100.00
64192;BME280;50497;50.720;-2.084;2023-04-30T13:08:16;102596.38;;;13.56;100.00
64192;BME280;50497;50.720;-2.084;2023-04-30T13:10:47;102592.69;;;13.88;100.00
64192;BME280;50497;50.720;-2.084;2023-04-30T13:13:13;102596.75;;;13.10;100.00
64192;BME280;50497;50.720;-2.084;2023-04-30T13:15:42;102577.53;;;13.56;100.00
64192;BME280;50497;50.720;-2.084;2023-04-30T13:18:08;102605.41;;;13.83;100.00